Time;durP1;ratioP1;P1;durP2;ratioP2;P2;SDS_P1;SDS_P2;PMS_P1;PMS_P2;Temp;Humidity;BMP_temperature;BMP_pressure;BME280_temperature;BME280_humidity;BME280_pressure;Samples;Min_cycle;Max_cycle;Signal;HPM_P1;HPM_P2
2021/08/30 00:01:21;;;;;;;2.73;2.40;;;14.20;97.00;;;;;;6334155;28;20562;-62
2021/08/30 00:04:25;;;;;;;3.13;2.40;;;14.20;97.10;;;;;;6332590;28;20494;-63
2021/08/30 00:07:29;;;;;;;2.80;2.60;;;14.10;97.10;;;;;;6340740;28;20478;-62
2021/08/30 00:10:33;;;;;;;3.47;2.67;;;14.20;97.10;;;;;;6340973;28;20471;-62
2021/08/30 00:13:36;;;;;;;2.90;2.13;;;14.20;97.10;;;;;;6339798;28;20463;-62
2021/08/30 00:16:39;;;;;;;2.47;2.30;;;14.20;97.20;;;;;;6341468;27;20985;-62
2021/08/30 00:19:44;;;;;;;2.90;2.70;;;14.10;97.10;;;;;;6336642;28;20468;-62
2021/08/30 00:22:48;;;;;;;3.10;2.80;;;14.00;97.40;;;;;;6340887;28;20460;-62
2021/08/30 00:25:51;;;;;;;5.87;3.87;;;14.10;97.60;;;;;;6342960;28;20600;-62
2021/08/30 00:28:54;;;;;;;4.90;4.50;;;14.10;97.90;;;;;;6353163;27;20471;-63
2021/08/30 00:31:58;;;;;;;5.43;4.37;;;14.00;97.80;;;;;;6353090;28;20478;-62
2021/08/30 00:35:04;;;;;;;4.30;4.00;;;14.00;98.10;;;;;;6343512;28;20548;-62
2021/08/30 00:38:08;;;;;;;7.70;3.67;;;14.00;98.20;;;;;;6352820;28;20483;-62
2021/08/30 00:41:11;;;;;;;4.00;3.20;;;14.00;98.30;;;;;;6352847;28;20471;-62
2021/08/30 00:44:14;;;;;;;3.60;2.63;;;13.90;98.10;;;;;;6352717;28;20581;-62
2021/08/30 00:47:17;;;;;;;3.53;3.10;;;13.90;98.10;;;;;;6352679;28;20479;-62
2021/08/30 00:50:22;;;;;;;2.93;2.67;;;13.80;98.00;;;;;;6352754;28;20813;-62
2021/08/30 00:53:26;;;;;;;2.67;2.47;;;13.80;98.00;;;;;;6352799;28;20478;-62
2021/08/30 00:56:29;;;;;;;3.70;2.80;;;13.70;98.10;;;;;;6352594;28;20557;-62
2021/08/30 00:59:34;;;;;;;3.70;2.30;;;13.60;98.40;;;;;;6352244;28;20512;-63
2021/08/30 01:02:41;;;;;;;2.33;2.13;;;13.60;98.40;;;;;;6352793;28;20477;-62
2021/08/30 01:05:50;;;;;;;3.67;2.67;;;13.60;98.40;;;;;;6352404;28;20800;-62
2021/08/30 01:09:02;;;;;;;3.10;2.80;;;13.70;98.40;;;;;;6352481;27;20557;-63
2021/08/30 01:12:09;;;;;;;4.20;2.70;;;13.70;98.40;;;;;;6352396;28;20485;-63
2021/08/30 01:15:17;;;;;;;2.70;2.50;;;13.60;98.70;;;;;;6341838;28;20468;-62
2021/08/30 01:18:23;;;;;;;2.50;2.30;;;13.60;98.80;;;;;;6333830;28;20445;-62
2021/08/30 01:21:31;;;;;;;3.07;2.63;;;13.50;98.80;;;;;;6350717;28;20420;-63
2021/08/30 01:24:35;;;;;;;2.60;2.40;;;13.50;99.00;;;;;;6352345;27;20474;-63
2021/08/30 01:27:40;;;;;;;2.43;2.30;;;13.60;99.00;;;;;;6351986;28;20471;-62
2021/08/30 01:30:46;;;;;;;2.70;2.50;;;13.60;98.90;;;;;;6351912;28;20459;-62
2021/08/30 01:33:52;;;;;;;2.60;2.40;;;13.50;98.90;;;;;;6351953;28;20460;-62
2021/08/30 01:36:55;;;;;;;3.00;2.80;;;13.50;99.00;;;;;;6342018;28;20464;-62
2021/08/30 01:39:59;;;;;;;2.90;2.57;;;13.40;99.00;;;;;;6351910;28;20467;-62
2021/08/30 01:43:03;;;;;;;2.67;2.47;;;13.40;99.20;;;;;;6351579;28;20806;-63
2021/08/30 01:46:07;;;;;;;2.97;2.53;;;13.40;99.40;;;;;;6351656;27;20532;-62
2021/08/30 01:49:12;;;;;;;2.93;2.73;;;13.40;99.40;;;;;;6351194;28;20558;-62
2021/08/30 01:52:16;;;;;;;2.83;2.60;;;13.40;99.60;;;;;;6351185;28;20475;-63
2021/08/30 01:55:30;;;;;;;3.57;3.07;;;13.40;99.70;;;;;;6351213;28;20483;-62
2021/08/30 02:01:54;;;;;;;3.67;3.27;;;13.30;99.90;;;;;;6351303;28;20905;-62
2021/08/30 02:04:59;;;;;;;2.87;2.57;;;13.10;99.90;;;;;;6351251;27;20467;-62
2021/08/30 02:08:02;;;;;;;3.07;2.83;;;13.10;99.90;;;;;;6350927;28;20486;-62
2021/08/30 02:11:07;;;;;;;3.43;3.13;;;13.10;99.90;;;;;;6351123;28;20463;-62
2021/08/30 02:14:10;;;;;;;3.10;2.80;;;13.10;99.90;;;;;;6351187;27;20471;-62
2021/08/30 02:17:22;;;;;;;3.50;3.20;;;13.00;99.90;;;;;;6350681;28;20986;-62
2021/08/30 02:20:30;;;;;;;3.90;3.57;;;13.00;99.90;;;;;;6350761;28;20468;-63
2021/08/30 02:23:39;;;;;;;3.30;3.00;;;12.90;99.90;;;;;;6350651;28;20479;-62
2021/08/30 02:26:47;;;;;;;3.67;3.03;;;12.90;99.90;;;;;;6350673;28;20471;-62
2021/08/30 02:29:58;;;;;;;3.00;2.80;;;12.90;99.90;;;;;;6350003;28;20976;-62
2021/08/30 02:33:05;;;;;;;3.50;3.20;;;12.90;99.90;;;;;;6350455;28;20505;-63
2021/08/30 02:36:11;;;;;;;3.30;3.00;;;12.90;99.90;;;;;;6350249;28;20476;-62
2021/08/30 02:39:15;;;;;;;3.60;3.20;;;12.90;99.90;;;;;;6345628;28;20485;-63
2021/08/30 02:42:19;;;;;;;2.87;2.53;;;12.80;99.90;;;;;;6350418;28;20446;-63
2021/08/30 02:45:24;;;;;;;3.07;2.77;;;12.80;99.90;;;;;;6350295;28;20443;-63
2021/08/30 02:48:28;;;;;;;3.07;2.70;;;12.80;99.90;;;;;;6349851;28;20489;-62
2021/08/30 02:51:33;;;;;;;3.27;2.90;;;12.80;99.90;;;;;;6349835;28;20459;-63
2021/08/30 02:54:37;;;;;;;4.40;3.93;;;12.80;99.90;;;;;;6350104;28;20471;-62
2021/08/30 02:57:42;;;;;;;3.30;3.00;;;12.80;99.90;;;;;;6349871;28;20960;-62
2021/08/30 03:00:45;;;;;;;2.93;2.73;;;12.70;99.90;;;;;;6349723;28;20528;-62
2021/08/30 03:03:49;;;;;;;3.30;3.00;;;12.70;99.90;;;;;;6349639;28;20808;-62
2021/08/30 03:06:55;;;;;;;7.50;4.73;;;12.80;99.90;;;;;;6349710;28;20468;-62
2021/08/30 03:10:00;;;;;;;4.70;3.93;;;12.80;99.90;;;;;;6349650;28;20486;-63
2021/08/30 03:13:05;;;;;;;4.93;4.23;;;12.80;99.90;;;;;;6349601;28;20487;-63
2021/08/30 03:16:08;;;;;;;3.60;2.70;;;12.70;99.90;;;;;;6349884;28;20479;-62
2021/08/30 03:19:14;;;;;;;3.93;3.60;;;12.70;99.90;;;;;;6349551;28;20475;-63
2021/08/30 03:22:21;;;;;;;3.70;3.20;;;12.60;99.90;;;;;;6349683;28;20467;-62
2021/08/30 03:25:30;;;;;;;3.43;3.13;;;12.60;99.90;;;;;;6349556;28;20537;-62
2021/08/30 03:28:35;;;;;;;5.17;3.30;;;12.50;99.90;;;;;;6349692;28;20810;-63
2021/08/30 03:31:39;;;;;;;4.10;3.30;;;12.50;99.90;;;;;;6349369;28;20820;-63
2021/08/30 03:34:43;;;;;;;3.90;3.10;;;12.40;99.90;;;;;;6349026;28;20813;-63
2021/08/30 03:37:48;;;;;;;3.93;3.37;;;12.40;99.90;;;;;;6349053;28;20540;-62
2021/08/30 03:40:53;;;;;;;3.20;2.90;;;12.40;99.90;;;;;;6351778;28;20463;-62
2021/08/30 03:43:57;;;;;;;3.40;2.80;;;12.40;99.90;;;;;;6349700;27;20862;-62
2021/08/30 03:47:00;;;;;;;3.00;2.70;;;12.30;99.90;;;;;;6354372;27;20502;-63
2021/08/30 03:50:06;;;;;;;2.67;2.43;;;12.10;99.90;;;;;;6351147;28;20479;-63
2021/08/30 03:53:10;;;;;;;4.03;2.97;;;12.00;99.90;;;;;;6354646;28;20463;-63
2021/08/30 03:56:14;;;;;;;3.50;2.63;;;12.10;99.90;;;;;;6354358;28;20482;-62
2021/08/30 03:59:19;;;;;;;2.90;2.40;;;12.10;99.90;;;;;;6353830;28;20475;-62
2021/08/30 04:02:23;;;;;;;3.10;2.80;;;12.10;99.90;;;;;;6354276;28;20467;-63
2021/08/30 04:05:29;;;;;;;3.00;2.73;;;12.10;99.90;;;;;;6353947;28;20463;-62
2021/08/30 04:08:34;;;;;;;3.50;3.20;;;12.10;99.90;;;;;;6353846;28;20476;-62
2021/08/30 04:11:37;;;;;;;6.10;2.87;;;12.20;99.90;;;;;;6353775;28;20543;-62
2021/08/30 04:14:40;;;;;;;5.27;3.40;;;12.20;99.90;;;;;;6353877;28;20988;-62
2021/08/30 04:17:44;;;;;;;2.70;2.50;;;12.20;99.90;;;;;;6353620;28;20482;-63
2021/08/30 04:20:47;;;;;;;2.70;2.50;;;12.20;99.90;;;;;;6353849;28;20975;-62
2021/08/30 04:23:51;;;;;;;3.60;3.13;;;12.30;99.90;;;;;;6353446;28;20541;-62
2021/08/30 04:26:54;;;;;;;4.90;3.20;;;12.30;99.90;;;;;;6352930;27;20467;-62
2021/08/30 04:29:58;;;;;;;3.73;3.03;;;12.30;99.90;;;;;;6352551;28;20493;-62
2021/08/30 04:33:01;;;;;;;3.60;2.43;;;12.40;99.90;;;;;;6352647;27;20463;-63
2021/08/30 04:36:04;;;;;;;2.70;2.50;;;12.30;99.90;;;;;;6353279;28;20475;-63
2021/08/30 04:39:09;;;;;;;3.77;2.70;;;12.30;99.90;;;;;;6352797;28;20995;-62
2021/08/30 04:42:12;;;;;;;3.20;2.90;;;12.30;99.90;;;;;;6353425;28;20972;-63
2021/08/30 04:45:15;;;;;;;3.63;3.23;;;12.20;99.90;;;;;;6348234;28;20785;-63
2021/08/30 04:48:18;;;;;;;4.67;3.90;;;12.40;99.90;;;;;;6353341;28;20466;-62
2021/08/30 04:51:21;;;;;;;4.30;3.70;;;12.40;99.90;;;;;;6352353;28;20779;-62
2021/08/30 04:54:26;;;;;;;3.73;3.37;;;12.40;99.90;;;;;;6352723;28;20924;-62
2021/08/30 04:57:29;;;;;;;5.03;3.40;;;12.50;99.90;;;;;;6352692;28;20486;-61
2021/08/30 05:00:32;;;;;;;3.57;3.23;;;12.60;99.90;;;;;;6351524;28;20574;-62
2021/08/30 05:03:36;;;;;;;3.97;3.10;;;12.70;99.90;;;;;;6352367;27;20470;-61
2021/08/30 05:06:39;;;;;;;3.73;3.43;;;12.70;99.90;;;;;;6351976;27;20479;-62
2021/08/30 05:09:44;;;;;;;4.63;2.97;;;12.60;99.90;;;;;;6352185;28;20486;-62
2021/08/30 05:12:47;;;;;;;3.50;2.70;;;12.50;99.90;;;;;;6352098;28;20467;-62
2021/08/30 05:15:51;;;;;;;3.40;3.10;;;12.50;99.90;;;;;;6352146;28;20851;-62
2021/08/30 05:18:54;;;;;;;5.23;2.63;;;12.60;99.90;;;;;;6351819;28;20500;-62
2021/08/30 05:21:57;;;;;;;2.80;2.57;;;12.60;99.90;;;;;;6352505;28;20455;-62
2021/08/30 05:25:02;;;;;;;2.90;2.60;;;12.70;99.90;;;;;;6352141;28;20793;-61
2021/08/30 05:28:05;;;;;;;3.90;2.97;;;12.70;99.90;;;;;;6352646;28;20464;-62
2021/08/30 05:31:08;;;;;;;3.33;2.53;;;12.80;99.90;;;;;;6351824;28;20975;-62
2021/08/30 05:34:12;;;;;;;3.13;2.83;;;12.90;99.90;;;;;;6352201;28;20600;-61
2021/08/30 05:37:15;;;;;;;3.20;2.83;;;12.90;99.90;;;;;;6351489;28;20476;-61
2021/08/30 05:40:19;;;;;;;2.80;2.60;;;13.00;99.90;;;;;;6351873;28;20482;-62
2021/08/30 05:43:23;;;;;;;3.53;2.80;;;13.20;99.90;;;;;;6352083;28;20467;-62
2021/08/30 05:46:27;;;;;;;5.27;2.80;;;13.30;99.90;;;;;;6351508;28;20493;-63
2021/08/30 05:49:30;;;;;;;6.63;2.53;;;13.50;99.90;;;;;;6351703;28;20556;-63
2021/08/30 05:52:33;;;;;;;8.10;3.60;;;13.60;99.90;;;;;;6341944;28;20979;-63
2021/08/30 05:55:38;;;;;;;4.50;3.03;;;13.80;99.90;;;;;;6351230;28;20840;-63
2021/08/30 05:58:41;;;;;;;5.07;3.30;;;14.20;99.90;;;;;;6350913;27;20497;-64
2021/08/30 06:01:44;;;;;;;5.50;2.77;;;14.90;99.90;;;;;;6351495;28;20470;-63
2021/08/30 06:04:47;;;;;;;3.90;2.90;;;15.90;99.30;;;;;;6350494;28;20463;-63
2021/08/30 06:07:50;;;;;;;3.10;2.30;;;16.90;97.50;;;;;;6351173;28;20463;-63
2021/08/30 06:10:57;;;;;;;4.47;2.70;;;17.90;95.40;;;;;;6350866;28;20459;-63
2021/08/30 06:14:00;;;;;;;2.70;1.90;;;18.90;93.40;;;;;;6350878;28;21025;-63
2021/08/30 06:17:04;;;;;;;5.27;2.27;;;19.70;91.10;;;;;;6350812;28;20467;-63
2021/08/30 06:20:08;;;;;;;3.50;2.43;;;20.60;89.30;;;;;;6350715;28;20236;-63
2021/08/30 06:23:12;;;;;;;4.70;2.00;;;21.50;85.00;;;;;;6350545;28;20533;-63
2021/08/30 06:26:16;;;;;;;3.70;2.33;;;22.10;80.20;;;;;;6350606;28;20694;-63
2021/08/30 06:29:19;;;;;;;3.50;2.13;;;22.90;76.00;;;;;;6350388;28;20706;-63
2021/08/30 06:32:23;;;;;;;3.70;2.20;;;23.70;71.80;;;;;;6350684;28;20229;-63
2021/08/30 06:35:26;;;;;;;3.27;1.80;;;24.60;66.70;;;;;;6350218;28;20236;-63
2021/08/30 06:38:29;;;;;;;2.77;2.27;;;25.20;62.50;;;;;;6350076;28;20229;-63
2021/08/30 06:41:34;;;;;;;3.30;1.90;;;25.60;59.40;;;;;;6350287;28;20233;-62
2021/08/30 06:44:37;;;;;;;3.10;1.67;;;26.00;57.90;;;;;;6327664;28;20312;-62
2021/08/30 06:47:42;;;;;;;3.40;2.30;;;26.60;54.40;;;;;;6324864;28;20240;-66
2021/08/30 06:50:45;;;;;;;3.40;1.87;;;26.80;52.70;;;;;;6324669;28;20229;-62
2021/08/30 06:53:48;;;;;;;2.43;1.73;;;26.70;52.20;;;;;;6324735;28;20226;-62
2021/08/30 06:56:52;;;;;;;4.47;1.73;;;26.30;52.10;;;;;;6324573;28;20226;-62
2021/08/30 06:59:56;;;;;;;1.60;1.50;;;26.00;51.90;;;;;;6324343;28;20246;-62
2021/08/30 07:02:59;;;;;;;2.20;2.00;;;25.90;51.90;;;;;;6324419;28;20225;-63
2021/08/30 07:06:02;;;;;;;2.40;1.90;;;26.40;51.40;;;;;;6324403;28;20550;-63
2021/08/30 07:09:06;;;;;;;3.10;1.90;;;26.90;49.80;;;;;;6329173;28;20218;-63
2021/08/30 07:12:10;;;;;;;2.90;1.87;;;27.80;48.50;;;;;;6328154;28;20225;-64
2021/08/30 07:15:14;;;;;;;2.40;2.10;;;28.40;47.90;;;;;;6325231;28;20713;-65
2021/08/30 07:18:18;;;;;;;3.13;2.20;;;29.10;46.30;;;;;;6336848;27;20218;-64
2021/08/30 07:21:23;;;;;;;3.07;1.63;;;28.80;45.00;;;;;;6332625;28;20198;-65
2021/08/30 07:24:26;;;;;;;3.63;1.77;;;28.40;45.40;;;;;;6336783;28;20447;-65
2021/08/30 07:27:31;;;;;;;3.67;1.80;;;27.70;45.40;;;;;;6336200;28;20216;-65
2021/08/30 07:30:34;;;;;;;2.10;1.70;;;26.80;47.10;;;;;;6333437;28;20205;-64
2021/08/30 07:33:37;;;;;;;3.07;1.90;;;25.80;49.00;;;;;;6336472;28;20655;-64
2021/08/30 07:36:41;;;;;;;4.40;2.03;;;24.90;50.60;;;;;;6336335;28;20295;-64
2021/08/30 07:39:44;;;;;;;2.73;2.23;;;24.10;52.20;;;;;;6335693;28;20225;-64
2021/08/30 07:42:49;;;;;;;2.43;1.93;;;23.60;53.30;;;;;;6335086;28;20234;-65
2021/08/30 07:45:53;;;;;;;2.80;1.77;;;23.30;54.40;;;;;;6335055;28;20682;-63
2021/08/30 07:48:56;;;;;;;3.80;2.10;;;23.10;54.80;;;;;;6335586;28;20233;-66
2021/08/30 07:51:59;;;;;;;3.13;1.97;;;23.00;55.50;;;;;;6336158;28;20221;-63
2021/08/30 07:55:04;;;;;;;1.90;1.80;;;22.70;54.90;;;;;;6336157;28;20225;-63
2021/08/30 07:58:08;;;;;;;2.00;1.50;;;22.40;55.60;;;;;;6330378;28;20233;-63
2021/08/30 08:01:11;;;;;;;4.27;1.83;;;22.30;56.10;;;;;;6332230;28;20233;-64
2021/08/30 08:04:15;;;;;;;3.20;2.20;;;22.10;56.50;;;;;;6303539;28;20222;-62
2021/08/30 08:07:18;;;;;;;1.73;1.60;;;22.10;57.00;;;;;;6302959;28;20839;-62
2021/08/30 08:10:21;;;;;;;5.17;2.23;;;22.10;57.80;;;;;;6321533;28;20694;-68
2021/08/30 08:13:28;;;;;;;4.33;2.40;;;22.10;58.00;;;;;;6301650;28;20615;-62
2021/08/30 08:16:36;;;;;;;3.30;1.93;;;22.20;57.60;;;;;;6296184;28;20226;-65
2021/08/30 08:19:40;;;;;;;1.87;1.77;;;22.20;57.20;;;;;;6296424;28;20231;-65
2021/08/30 08:22:44;;;;;;;3.67;1.93;;;22.30;57.90;;;;;;6322639;28;20233;-67
2021/08/30 08:25:47;;;;;;;2.60;1.63;;;22.30;57.70;;;;;;6333289;28;20233;-66
2021/08/30 08:28:52;;;;;;;4.50;1.93;;;22.30;57.50;;;;;;6338978;28;20222;-66
2021/08/30 08:31:55;;;;;;;3.80;1.90;;;22.10;57.00;;;;;;6334345;28;20241;-67
2021/08/30 08:34:58;;;;;;;3.93;2.00;;;22.10;57.30;;;;;;6338857;28;20228;-66
2021/08/30 08:38:02;;;;;;;3.00;1.90;;;21.90;57.70;;;;;;6337567;28;20306;-66
2021/08/30 08:41:05;;;;;;;7.60;2.20;;;21.10;60.10;;;;;;6337749;28;20294;-66
2021/08/30 08:44:10;;;;;;;6.17;2.20;;;21.10;61.20;;;;;;6337167;28;20229;-65
2021/08/30 08:47:16;;;;;;;4.63;2.30;;;21.00;62.50;;;;;;6336341;28;20238;-66
2021/08/30 08:50:22;;;;;;;6.57;2.53;;;21.10;63.00;;;;;;6338087;28;20232;-66
2021/08/30 08:53:25;;;;;;;4.20;2.57;;;21.10;63.50;;;;;;6337340;28;20229;-66
2021/08/30 08:56:29;;;;;;;4.57;3.00;;;21.20;63.40;;;;;;6336727;28;20225;-65
2021/08/30 08:59:33;;;;;;;5.70;3.70;;;21.10;65.50;;;;;;6338060;28;20827;-65
2021/08/30 09:02:55;;;;;;;8.53;4.30;;;20.90;68.20;;;;;;6337777;28;20222;-65
2021/08/30 09:06:02;;;;;;;8.63;4.37;;;20.90;69.90;;;;;;6299793;28;20734;-65
2021/08/30 09:09:07;;;;;;;7.23;3.83;;;21.10;70.10;;;;;;6299801;28;20239;-65
2021/08/30 09:12:20;;;;;;;5.23;3.50;;;21.00;69.00;;;;;;6310604;28;20233;-65
2021/08/30 09:15:26;;;;;;;8.23;3.93;;;21.10;69.20;;;;;;6324760;28;20583;-65
2021/08/30 09:18:31;;;;;;;6.70;3.20;;;21.10;70.40;;;;;;6324498;28;20635;-65
2021/08/30 09:21:35;;;;;;;6.70;4.00;;;20.90;70.90;;;;;;6324947;28;20194;-65
2021/08/30 09:24:39;;;;;;;12.13;3.60;;;21.10;71.90;;;;;;6324572;28;20286;-65
2021/08/30 09:27:46;;;;;;;6.50;4.40;;;21.50;71.50;;;;;;6324766;28;20259;-65
2021/08/30 09:30:56;;;;;;;6.03;3.60;;;22.30;70.30;;;;;;6324404;28;20226;-65
2021/08/30 09:34:03;;;;;;;7.23;3.90;;;23.50;65.60;;;;;;6324762;28;20226;-66
2021/08/30 09:37:15;;;;;;;11.67;4.00;;;23.90;62.80;;;;;;6321879;28;20230;-65
2021/08/30 09:40:20;;;;;;;3.20;2.60;;;24.00;61.80;;;;;;6298980;28;20239;-65
2021/08/30 09:43:23;;;;;;;6.27;3.23;;;24.10;60.00;;;;;;6299058;28;20227;-65
2021/08/30 09:46:31;;;;;;;8.53;3.20;;;24.00;60.00;;;;;;6299168;28;20234;-65
2021/08/30 09:49:34;;;;;;;5.40;3.00;;;24.30;59.30;;;;;;6299082;28;20223;-65
2021/08/30 09:52:38;;;;;;;3.90;2.40;;;24.70;58.40;;;;;;6299021;28;20226;-65
2021/08/30 09:55:42;;;;;;;4.00;2.43;;;25.00;57.30;;;;;;6323475;28;20580;-67
2021/08/30 09:58:48;;;;;;;3.70;2.50;;;25.20;56.50;;;;;;6323341;28;20233;-61
2021/08/30 10:01:56;;;;;;;3.93;2.27;;;25.50;54.80;;;;;;6323679;28;20322;-67
2021/08/30 10:05:02;;;;;;;3.50;1.90;;;25.30;54.30;;;;;;6334430;27;20236;-68
2021/08/30 10:08:06;;;;;;;3.60;2.20;;;25.10;54.30;;;;;;6331563;28;20226;-68
2021/08/30 10:11:10;;;;;;;4.20;2.30;;;24.90;53.50;;;;;;6336504;28;20225;-68
2021/08/30 10:14:18;;;;;;;3.93;1.90;;;24.80;54.40;;;;;;6336781;28;20559;-63
2021/08/30 10:17:22;;;;;;;4.10;1.97;;;24.50;54.60;;;;;;6335169;27;20222;-63
2021/08/30 10:20:28;;;;;;;4.20;1.67;;;24.20;54.20;;;;;;6334647;28;20682;-63
2021/08/30 10:23:38;;;;;;;3.00;1.50;;;23.90;55.10;;;;;;6335797;28;20233;-63
2021/08/30 10:26:43;;;;;;;1.70;1.27;;;23.80;55.00;;;;;;6333544;28;20233;-63
2021/08/30 10:29:46;;;;;;;1.40;1.30;;;23.70;53.40;;;;;;6342378;28;20224;-65
2021/08/30 10:32:55;;;;;;;2.80;1.47;;;23.50;52.70;;;;;;6348181;28;20232;-64
2021/08/30 10:35:58;;;;;;;2.00;1.47;;;23.30;52.80;;;;;;6348025;28;20322;-63
2021/08/30 10:39:04;;;;;;;2.33;1.40;;;23.20;54.40;;;;;;6330366;28;20234;-62
2021/08/30 10:42:11;;;;;;;5.20;1.70;;;23.10;54.70;;;;;;6322599;28;20245;-64
2021/08/30 10:45:15;;;;;;;3.20;1.60;;;23.00;55.40;;;;;;6322644;28;20226;-65
2021/08/30 10:48:20;;;;;;;3.50;1.57;;;23.40;55.10;;;;;;6321425;28;20234;-64
2021/08/30 10:51:25;;;;;;;4.23;2.27;;;23.70;54.40;;;;;;6322754;28;20199;-62
2021/08/30 10:54:28;;;;;;;2.23;1.90;;;23.90;54.60;;;;;;6322700;28;20191;-63
2021/08/30 10:57:36;;;;;;;4.13;2.43;;;24.00;54.00;;;;;;6322354;28;20589;-65
2021/08/30 11:00:40;;;;;;;2.67;1.97;;;23.90;55.50;;;;;;6322034;28;20226;-63
2021/08/30 11:03:54;;;;;;;2.90;1.77;;;23.80;54.30;;;;;;6322078;28;20238;-64
2021/08/30 11:06:57;;;;;;;1.57;1.40;;;23.80;53.50;;;;;;6322303;28;20238;-64
2021/08/30 11:10:01;;;;;;;2.13;1.40;;;23.90;51.30;;;;;;6317455;28;20549;-65
2021/08/30 11:13:04;;;;;;;4.00;1.90;;;23.90;51.10;;;;;;6302906;28;20246;-65
2021/08/30 11:16:22;;;;;;;3.23;1.90;;;24.00;51.50;;;;;;6297198;28;20237;-64
2021/08/30 11:19:26;;;;;;;2.93;1.50;;;23.70;51.90;;;;;;6296558;28;20234;-67
2021/08/30 11:22:30;;;;;;;5.27;1.47;;;23.30;51.70;;;;;;6301013;28;20233;-64
2021/08/30 11:25:36;;;;;;;2.03;1.77;;;22.90;52.50;;;;;;6303354;28;20566;-64
2021/08/30 11:28:55;;;;;;;2.03;1.80;;;22.60;52.50;;;;;;6321836;28;20234;-66
2021/08/30 11:31:58;;;;;;;2.90;1.60;;;22.30;53.30;;;;;;6302019;28;20235;-64
2021/08/30 11:35:02;;;;;;;1.73;1.30;;;22.30;53.50;;;;;;6296561;28;20738;-63
2021/08/30 11:38:12;;;;;;;4.73;1.50;;;22.40;53.30;;;;;;6302443;28;20226;-64
2021/08/30 11:41:15;;;;;;;2.90;1.30;;;22.40;53.70;;;;;;6296182;28;20288;-64
2021/08/30 11:44:19;;;;;;;3.83;1.20;;;22.30;53.60;;;;;;6295894;28;20594;-65
2021/08/30 11:47:24;;;;;;;2.40;1.57;;;22.20;54.00;;;;;;6295971;28;20238;-65
2021/08/30 11:50:28;;;;;;;2.93;1.13;;;22.30;53.70;;;;;;6296012;28;20229;-64
2021/08/30 11:53:32;;;;;;;9.30;1.80;;;22.10;53.70;;;;;;6296059;28;20238;-64
2021/08/30 11:56:35;;;;;;;3.43;1.43;;;22.00;54.40;;;;;;6295775;28;20223;-64
2021/08/30 11:59:40;;;;;;;2.47;1.60;;;21.90;55.00;;;;;;6295658;28;20242;-66
2021/08/30 12:02:44;;;;;;;3.13;1.77;;;21.70;57.20;;;;;;6300037;28;20233;-65
2021/08/30 12:05:48;;;;;;;2.30;1.97;;;21.70;57.90;;;;;;6300718;28;20676;-64
2021/08/30 12:08:53;;;;;;;3.80;1.50;;;21.80;58.70;;;;;;6300955;28;20233;-61
2021/08/30 12:11:56;;;;;;;2.90;2.00;;;22.00;59.00;;;;;;6301822;28;20234;-64
2021/08/30 12:15:02;;;;;;;4.60;1.80;;;22.40;58.00;;;;;;6337880;27;20574;-63
2021/08/30 12:18:05;;;;;;;4.23;1.60;;;23.00;57.40;;;;;;6321162;28;20574;-62
2021/08/30 12:21:10;;;;;;;4.27;2.17;;;23.30;56.20;;;;;;6317530;28;20234;-64
2021/08/30 12:24:20;;;;;;;4.00;1.60;;;23.30;55.60;;;;;;6317062;28;20237;-64
2021/08/30 12:27:23;;;;;;;3.83;2.10;;;23.60;55.60;;;;;;6310611;28;20556;-62
2021/08/30 12:30:29;;;;;;;3.47;1.73;;;24.00;54.80;;;;;;6306680;28;20218;-64
2021/08/30 12:33:34;;;;;;;4.83;1.77;;;24.40;54.70;;;;;;6300312;28;20199;-64
2021/08/30 12:36:39;;;;;;;2.87;1.80;;;24.60;55.00;;;;;;6316675;28;20199;-63
2021/08/30 12:39:42;;;;;;;2.50;1.67;;;24.80;55.60;;;;;;6321073;28;20316;-63
2021/08/30 12:42:58;;;;;;;3.63;1.53;;;24.90;54.10;;;;;;6318689;28;20223;-63
2021/08/30 12:46:06;;;;;;;3.10;1.67;;;24.90;53.40;;;;;;6303487;28;20241;-62
2021/08/30 12:49:09;;;;;;;2.53;1.10;;;24.90;52.50;;;;;;6301135;28;20235;-62
2021/08/30 12:52:14;;;;;;;2.97;1.73;;;24.60;53.40;;;;;;6316067;28;20244;-62
2021/08/30 12:55:18;;;;;;;1.73;1.23;;;24.30;54.70;;;;;;6311509;28;20230;-62
2021/08/30 12:58:21;;;;;;;5.37;2.23;;;24.20;56.40;;;;;;6299981;28;20235;-63
2021/08/30 13:01:24;;;;;;;1.40;1.30;;;24.20;56.20;;;;;;6315839;28;20238;-63
2021/08/30 13:04:28;;;;;;;2.07;1.30;;;23.90;56.20;;;;;;6316202;28;20245;-64
2021/08/30 13:07:32;;;;;;;3.20;1.30;;;23.90;56.60;;;;;;6318195;28;20226;-65
2021/08/30 13:10:37;;;;;;;2.07;1.37;;;23.80;57.00;;;;;;6316519;28;20226;-64
2021/08/30 13:13:41;;;;;;;1.50;1.10;;;23.70;55.80;;;;;;6313745;28;20230;-64
2021/08/30 13:16:44;;;;;;;1.30;1.20;;;23.60;57.20;;;;;;6319438;28;20237;-64
2021/08/30 13:19:48;;;;;;;1.27;0.90;;;23.60;56.80;;;;;;6315742;28;20573;-64
2021/08/30 13:22:53;;;;;;;3.67;1.40;;;23.50;56.00;;;;;;6307728;28;20229;-64
2021/08/30 13:25:57;;;;;;;2.30;1.10;;;23.50;55.40;;;;;;6311415;28;20242;-64
2021/08/30 13:29:02;;;;;;;1.13;0.97;;;23.40;57.50;;;;;;6328432;28;20570;-64
2021/08/30 13:32:06;;;;;;;1.93;1.10;;;23.20;57.00;;;;;;6337133;28;20780;-64
2021/08/30 13:35:10;;;;;;;2.60;1.20;;;23.10;59.20;;;;;;6319095;28;20238;-64
2021/08/30 13:38:15;;;;;;;2.50;1.67;;;22.80;61.10;;;;;;6299115;28;20840;-65
2021/08/30 13:41:19;;;;;;;2.60;1.53;;;22.50;59.70;;;;;;6305742;28;20315;-64
2021/08/30 13:44:23;;;;;;;3.87;1.57;;;22.30;59.60;;;;;;6308419;28;20246;-64
2021/08/30 13:47:26;;;;;;;1.47;1.00;;;22.00;60.40;;;;;;6303345;28;20242;-64
2021/08/30 13:50:29;;;;;;;1.33;1.13;;;21.90;61.10;;;;;;6298363;28;20219;-63
2021/08/30 13:53:35;;;;;;;1.30;1.20;;;21.80;62.50;;;;;;6312663;28;20327;-64
2021/08/30 13:56:38;;;;;;;1.73;1.03;;;21.80;62.20;;;;;;6314353;28;20257;-64
2021/08/30 13:59:43;;;;;;;1.50;1.30;;;21.60;60.40;;;;;;6307909;28;20237;-63
2021/08/30 14:02:46;;;;;;;1.30;1.20;;;21.60;61.00;;;;;;6306069;28;20242;-63
2021/08/30 14:05:49;;;;;;;1.50;1.20;;;21.70;61.80;;;;;;6312230;28;20282;-62
2021/08/30 14:08:54;;;;;;;2.50;1.20;;;21.80;62.70;;;;;;6314581;28;20234;-62
2021/08/30 14:11:58;;;;;;;2.17;1.10;;;21.90;63.30;;;;;;6310568;28;20230;-64
2021/08/30 14:15:01;;;;;;;1.33;1.23;;;22.00;62.90;;;;;;6306163;28;20245;-63
2021/08/30 14:18:04;;;;;;;2.13;1.27;;;22.00;64.30;;;;;;6309498;28;20245;-63
2021/08/30 14:21:08;;;;;;;1.43;1.33;;;22.10;65.60;;;;;;6314589;28;20231;-64
2021/08/30 14:24:12;;;;;;;1.70;1.07;;;22.10;65.60;;;;;;6306747;28;20222;-64
2021/08/30 14:27:17;;;;;;;2.40;1.23;;;22.10;65.50;;;;;;6305912;28;20230;-64
2021/08/30 14:30:20;;;;;;;1.30;1.20;;;22.00;65.20;;;;;;6307361;28;20234;-64
2021/08/30 14:33:23;;;;;;;2.10;1.20;;;22.00;66.20;;;;;;6321811;28;20198;-64
2021/08/30 14:36:46;;;;;;;3.13;1.57;;;22.00;68.40;;;;;;6306112;28;20310;-64
2021/08/30 14:39:51;;;;;;;4.80;1.60;;;21.90;70.10;;;;;;6297239;28;20235;-64
2021/08/30 14:42:54;;;;;;;1.93;1.77;;;21.80;69.00;;;;;;6314081;28;20226;-64
2021/08/30 14:45:57;;;;;;;1.87;1.40;;;21.60;69.40;;;;;;6300320;28;20269;-64
2021/08/30 14:49:00;;;;;;;4.90;1.40;;;21.50;70.50;;;;;;6313955;28;20237;-64
2021/08/30 14:52:05;;;;;;;1.73;1.20;;;21.40;70.80;;;;;;6309285;28;20291;-64
2021/08/30 14:55:11;;;;;;;5.27;1.67;;;21.30;71.80;;;;;;6305363;28;20222;-64
2021/08/30 14:58:15;;;;;;;2.83;1.47;;;21.30;73.20;;;;;;6308637;28;20243;-65
2021/08/30 15:01:18;;;;;;;2.80;1.57;;;21.30;73.30;;;;;;6312601;28;20219;-61
2021/08/30 15:04:22;;;;;;;4.00;1.37;;;21.30;73.80;;;;;;6313353;28;20230;-70
2021/08/30 15:07:25;;;;;;;1.77;1.67;;;21.20;72.10;;;;;;6330864;28;20689;-65
2021/08/30 15:10:30;;;;;;;2.40;1.30;;;21.00;73.50;;;;;;6335256;28;20229;-65
2021/08/30 15:13:34;;;;;;;1.70;1.60;;;20.90;75.30;;;;;;6333341;28;20707;-64
2021/08/30 15:16:37;;;;;;;2.37;1.30;;;20.80;77.70;;;;;;6332344;28;20232;-65
2021/08/30 15:19:40;;;;;;;2.53;1.30;;;20.70;77.80;;;;;;6333861;28;20222;-65
2021/08/30 15:22:44;;;;;;;2.77;1.40;;;20.50;79.30;;;;;;6328856;28;20222;-65
2021/08/30 15:25:48;;;;;;;4.40;1.40;;;20.40;81.60;;;;;;6306669;28;20691;-65
2021/08/30 15:28:59;;;;;;;2.30;1.60;;;20.30;81.00;;;;;;6312014;28;20658;-65
2021/08/30 15:32:05;;;;;;;1.40;1.30;;;20.20;81.50;;;;;;6307314;28;20237;-65
2021/08/30 15:35:09;;;;;;;2.07;1.93;;;20.10;83.10;;;;;;6303084;28;20226;-65
2021/08/30 15:38:13;;;;;;;1.97;1.87;;;20.00;85.20;;;;;;6326668;28;20254;-65
2021/08/30 15:41:18;;;;;;;1.60;1.30;;;20.00;85.30;;;;;;6329822;28;20226;-65
2021/08/30 15:44:21;;;;;;;2.20;1.70;;;20.10;86.20;;;;;;6330976;28;20248;-65
2021/08/30 15:47:24;;;;;;;2.27;1.80;;;20.20;86.30;;;;;;6331938;28;20237;-66
2021/08/30 15:50:28;;;;;;;4.10;1.87;;;20.40;86.40;;;;;;6331206;28;20675;-65
2021/08/30 15:53:31;;;;;;;1.53;1.43;;;20.50;87.30;;;;;;6331331;28;20217;-65
2021/08/30 15:56:35;;;;;;;1.47;1.33;;;20.70;87.80;;;;;;6333532;28;20226;-65
2021/08/30 15:59:39;;;;;;;1.80;1.70;;;20.70;87.10;;;;;;6289392;28;1132442;-62
2021/08/30 16:02:43;;;;;;;2.23;2.03;;;20.70;88.00;;;;;;6337389;28;20225;-62